createdAt,value
2022-12-01T11:05:21.405Z,38.41
2022-12-01T11:07:49.249Z,41.40
2022-12-01T11:10:18.107Z,44.65
2022-12-01T11:12:57.159Z,46.72
2022-12-01T11:15:33.472Z,50.18
2022-12-01T11:18:02.473Z,52.52
2022-12-01T11:20:32.885Z,54.35
2022-12-01T11:23:18.221Z,56.10
2022-12-01T11:26:10.815Z,58.01
2022-12-01T11:28:51.982Z,57.99
2022-12-01T11:31:20.566Z,59.09
2022-12-01T11:33:52.341Z,59.73
2022-12-01T11:36:31.750Z,59.20
2022-12-01T11:39:01.496Z,60.61
2022-12-01T11:41:39.385Z,61.72
2022-12-01T11:44:43.213Z,61.33
2022-12-01T11:47:23.099Z,61.96
2022-12-01T11:49:59.585Z,62.55
2022-12-01T11:52:45.483Z,62.76
2022-12-01T11:55:11.871Z,62.62
2022-12-01T11:57:42.542Z,62.89
2022-12-01T12:00:13.858Z,63.17
2022-12-01T12:03:04.731Z,63.15
2022-12-01T12:10:14.773Z,62.57
2022-12-01T12:13:57.515Z,63.15
2022-12-01T12:16:42.855Z,63.10
2022-12-01T12:59:42.082Z,62.59
2022-12-01T13:02:14.760Z,61.91
2022-12-01T13:09:03.112Z,62.28
2022-12-01T13:11:36.058Z,62.11
2022-12-01T13:14:28.224Z,62.48
2022-12-01T13:16:59.694Z,62.31
2022-12-01T13:19:32.496Z,62.26
2022-12-01T13:22:00.935Z,62.11
2022-12-01T13:24:30.421Z,61.47
2022-12-01T13:27:06.594Z,62.43
2022-12-01T13:29:43.880Z,61.95
2022-12-01T13:32:28.403Z,61.37
2022-12-01T13:34:55.102Z,61.42
2022-12-01T13:37:36.774Z,61.81
2022-12-01T13:40:20.963Z,61.85
2022-12-01T13:43:10.810Z,61.48
2022-12-01T13:45:39.925Z,61.31
2022-12-01T13:48:26.217Z,61.70
2022-12-01T13:51:01.799Z,61.62
2022-12-01T13:53:36.668Z,61.94
2022-12-01T13:56:03.098Z,62.06
2022-12-01T13:58:35.509Z,61.72
2022-12-01T14:01:23.499Z,61.40
2022-12-01T14:03:57.095Z,61.92
2022-12-01T14:06:50.468Z,61.31
2022-12-01T14:09:26.936Z,61.95
2022-12-01T14:12:20.175Z,61.86
2022-12-01T14:14:57.054Z,62.19
2022-12-01T14:17:46.374Z,62.11
2022-12-01T14:20:12.805Z,62.15
2022-12-01T14:22:44.124Z,62.05
2022-12-01T14:25:20.249Z,62.02
2022-12-01T14:28:36.798Z,61.90
2022-12-01T14:31:05.751Z,61.89
2022-12-01T14:34:00.723Z,61.48
2022-12-01T14:36:32.786Z,61.38
2022-12-01T14:38:59.486Z,61.90
2022-12-01T14:41:33.362Z,61.85
2022-12-01T14:44:06.587Z,61.90
2022-12-01T14:47:13.662Z,61.76
2022-12-01T14:49:43.106Z,61.84
2022-12-01T14:52:29.664Z,62.22
2022-12-01T14:54:59.213Z,62.11
2022-12-01T14:57:34.542Z,61.48
2022-12-01T15:00:12.165Z,61.95
2022-12-01T15:02:46.885Z,61.73
2022-12-01T15:05:16.572Z,61.99
2022-12-01T15:07:46.402Z,62.15
2022-12-01T15:10:29.086Z,62.24
2022-12-01T15:12:55.932Z,62.42
2022-12-01T15:15:26.913Z,62.12
2022-12-01T15:17:55.711Z,62.20
2022-12-01T15:20:56.610Z,62.52
2022-12-01T15:23:23.203Z,62.94
2022-12-01T15:25:49.674Z,63.10
2022-12-01T15:28:22.386Z,62.10
2022-12-01T15:30:53.999Z,62.24
2022-12-01T15:33:27.150Z,62.53
2022-12-01T15:35:55.636Z,62.75
2022-12-01T15:38:27.303Z,62.48
2022-12-01T15:43:42.770Z,62.26
2022-12-01T15:46:17.925Z,62.42
2022-12-01T15:48:45.578Z,62.67
2022-12-01T15:51:20.628Z,62.79
2022-12-01T15:53:50.121Z,62.82
2022-12-01T15:56:24.238Z,62.86
2022-12-01T15:58:51.972Z,62.63
2022-12-01T16:01:20.259Z,62.80
2022-12-01T16:03:57.179Z,63.10
2022-12-01T16:06:28.915Z,62.81
2022-12-01T16:09:18.563Z,63.07
2022-12-01T16:12:23.372Z,63.29
2022-12-01T16:14:53.834Z,63.19
2022-12-01T16:17:21.551Z,63.35
2022-12-01T16:19:49.194Z,63.49
2022-12-01T16:22:21.700Z,63.22
2022-12-01T16:24:52.660Z,63.21
2022-12-01T16:27:27.887Z,63.22
2022-12-01T16:30:00.579Z,63.31
2022-12-01T16:32:42.089Z,63.75
2022-12-01T16:35:30.573Z,63.24
2022-12-01T16:37:57.908Z,63.63
2022-12-01T16:40:25.287Z,63.29
2022-12-01T16:42:51.882Z,63.46
2022-12-01T16:45:20.803Z,63.46
2022-12-01T16:47:48.985Z,63.47
2022-12-01T16:50:17.780Z,63.26
2022-12-01T16:52:47.501Z,63.77
2022-12-01T16:55:33.710Z,63.72
2022-12-01T16:58:03.540Z,64.10
2022-12-01T17:00:30.300Z,64.46
2022-12-01T17:02:57.551Z,64.71
2022-12-01T17:05:26.960Z,64.69
2022-12-01T17:07:53.814Z,64.76
2022-12-01T17:10:21.731Z,64.92
2022-12-01T17:12:48.363Z,64.64
2022-12-01T17:15:15.430Z,64.42
2022-12-01T17:17:42.566Z,64.74
2022-12-01T17:20:10.493Z,64.81
2022-12-01T17:22:37.252Z,64.87
2022-12-01T17:25:04.224Z,65.10
2022-12-01T17:27:31.558Z,65.34
2022-12-01T17:30:02.866Z,65.52
2022-12-01T17:32:29.502Z,65.21
2022-12-01T17:34:56.058Z,65.17
2022-12-01T17:37:38.780Z,65.46
2022-12-01T17:40:07.287Z,65.50
2022-12-01T17:42:34.386Z,65.39
2022-12-01T17:45:01.003Z,65.35
2022-12-01T17:47:28.066Z,65.78
2022-12-01T17:50:15.102Z,66.08
2022-12-01T17:52:41.636Z,66.07
2022-12-01T17:55:09.653Z,66.56
2022-12-01T17:57:36.209Z,66.96
2022-12-01T18:00:06.039Z,67.47
2022-12-01T18:02:32.874Z,67.17
2022-12-01T18:05:00.502Z,67.34
2022-12-01T18:07:27.122Z,67.31
2022-12-01T18:09:54.074Z,67.46
2022-12-01T18:12:20.557Z,67.56
2022-12-01T18:14:47.458Z,67.52
2022-12-01T18:17:14.169Z,67.50
2022-12-01T18:19:40.724Z,67.51
2022-12-01T18:22:07.234Z,67.80
2022-12-01T18:24:33.825Z,67.35
2022-12-01T18:27:02.509Z,66.89
2022-12-01T18:29:29.207Z,67.50
2022-12-01T18:31:57.025Z,67.56
2022-12-01T18:34:24.013Z,67.62
2022-12-01T18:36:50.905Z,67.41
2022-12-01T18:39:17.608Z,67.82
2022-12-01T18:41:44.355Z,67.49
2022-12-01T18:44:11.045Z,68.11
2022-12-01T18:46:37.763Z,67.67
2022-12-01T18:49:05.696Z,67.51
2022-12-01T18:51:35.020Z,67.38
2022-12-01T18:54:02.995Z,67.30
2022-12-01T18:56:30.782Z,67.59
2022-12-01T18:59:03.563Z,67.55
2022-12-01T19:01:33.234Z,67.85
2022-12-01T19:04:00.975Z,67.61
2022-12-01T19:06:28.966Z,67.65
2022-12-01T19:09:00.582Z,67.65
2022-12-01T19:11:27.711Z,67.28
2022-12-01T19:13:56.030Z,67.42
2022-12-01T19:16:23.188Z,67.36
2022-12-01T19:18:50.016Z,67.63
2022-12-01T19:21:18.973Z,67.47
2022-12-01T19:23:48.342Z,67.55
2022-12-01T19:26:20.592Z,67.43
2022-12-01T19:28:49.761Z,67.53
2022-12-01T19:31:23.642Z,67.56
2022-12-01T19:33:53.717Z,67.54
2022-12-01T19:36:23.345Z,67.33
2022-12-01T19:38:50.461Z,67.12
2022-12-01T19:41:20.491Z,66.99
2022-12-01T19:43:47.719Z,67.20
2022-12-01T19:46:18.004Z,66.83
2022-12-01T19:48:48.472Z,67.23
2022-12-01T19:51:20.520Z,67.47
2022-12-01T19:53:47.475Z,67.11
2022-12-01T19:56:14.241Z,67.02
2022-12-01T19:58:40.981Z,66.87
2022-12-01T20:01:22.191Z,66.90
2022-12-01T20:03:50.523Z,67.01
2022-12-01T20:06:19.719Z,67.08
2022-12-01T20:08:46.715Z,67.04
2022-12-01T20:11:14.499Z,67.02
2022-12-01T20:13:43.671Z,66.90
2022-12-01T20:16:14.438Z,67.39
2022-12-01T20:18:41.753Z,67.27
2022-12-01T20:21:10.540Z,67.41
2022-12-01T20:23:37.401Z,67.12
2022-12-01T20:26:06.920Z,67.26
2022-12-01T20:28:36.132Z,66.97
2022-12-01T20:31:03.720Z,66.77
2022-12-01T20:33:30.399Z,67.23
2022-12-01T20:35:57.056Z,66.81
2022-12-01T20:38:27.465Z,66.72
2022-12-01T20:40:54.531Z,67.14
2022-12-01T20:43:21.316Z,66.86
2022-12-01T20:45:47.973Z,66.55
2022-12-01T20:48:15.012Z,66.75
2022-12-01T20:50:42.523Z,66.67
2022-12-01T20:53:09.366Z,66.61
2022-12-01T20:55:37.292Z,66.65
2022-12-01T20:58:05.415Z,66.85
2022-12-01T21:00:32.164Z,66.69
2022-12-01T21:02:58.766Z,66.75
2022-12-01T21:05:26.078Z,66.76
2022-12-01T21:07:53.098Z,66.85
2022-12-01T21:10:23.053Z,66.86
2022-12-01T21:13:16.092Z,66.90
2022-12-01T21:16:00.089Z,66.60
2022-12-01T21:18:55.259Z,66.64
2022-12-01T21:21:23.679Z,67.02
2022-12-01T21:24:17.107Z,67.01
2022-12-01T21:27:02.089Z,67.18
2022-12-01T21:29:39.210Z,67.20
2022-12-01T21:32:22.599Z,67.08
2022-12-01T21:34:49.640Z,67.10
2022-12-01T21:37:38.865Z,66.83
2022-12-01T21:40:15.775Z,66.89
2022-12-01T21:42:42.387Z,66.83
2022-12-01T21:45:28.603Z,66.89
2022-12-01T21:48:01.531Z,67.04
2022-12-01T21:50:28.221Z,66.66
2022-12-01T21:52:54.890Z,67.25
2022-12-01T21:55:24.390Z,67.14
2022-12-01T21:57:54.090Z,67.08
2022-12-01T22:00:29.988Z,67.09
2022-12-01T22:03:23.410Z,66.89
2022-12-01T22:06:21.171Z,66.85
2022-12-01T22:08:43.135Z,67.01
2022-12-01T22:11:15.767Z,66.47
2022-12-01T22:13:43.540Z,66.90
2022-12-01T22:16:20.510Z,66.93
2022-12-01T22:18:52.933Z,67.11
2022-12-01T22:21:22.406Z,66.94
2022-12-01T22:24:21.097Z,66.77
2022-12-01T22:26:52.046Z,66.88
2022-12-01T22:29:30.837Z,66.88
2022-12-01T22:32:15.881Z,66.92
2022-12-01T22:34:51.138Z,66.93
2022-12-01T22:37:22.772Z,66.85
2022-12-01T22:39:55.825Z,66.93
2022-12-01T22:42:32.041Z,66.90
2022-12-01T22:45:23.160Z,66.61
2022-12-01T22:48:00.456Z,66.72
2022-12-01T22:50:30.532Z,66.60
2022-12-01T22:53:15.471Z,66.47
2022-12-01T22:55:42.480Z,66.42
2022-12-01T22:58:28.099Z,66.55
2022-12-01T23:00:58.385Z,66.68
2022-12-01T23:03:35.312Z,66.42
2022-12-01T23:06:02.034Z,66.59
2022-12-01T23:08:28.564Z,66.44
2022-12-01T23:10:55.231Z,66.47
2022-12-01T23:13:27.008Z,66.28
2022-12-01T23:15:54.262Z,66.63
2022-12-01T23:18:23.801Z,66.34
2022-12-01T23:20:53.062Z,66.22
2022-12-01T23:23:21.995Z,66.24
2022-12-01T23:25:50.572Z,66.44
2022-12-01T23:28:18.065Z,66.64
2022-12-01T23:30:47.910Z,66.61
2022-12-01T23:33:31.367Z,66.57
2022-12-01T23:36:13.884Z,66.73
2022-12-01T23:38:49.253Z,66.55
2022-12-01T23:41:25.259Z,66.45
2022-12-01T23:43:55.332Z,66.38
2022-12-01T23:46:25.075Z,66.50
2022-12-01T23:48:55.486Z,66.76
2022-12-01T23:51:29.344Z,66.42
2022-12-01T23:53:57.304Z,66.42
2022-12-01T23:56:25.599Z,66.30
2022-12-01T23:58:52.765Z,66.32
